Weather observations for the past three days for
Falfurrias, Brooks County Airport
Imperial (Metric)
Date Time (cdt) Wind (mph) Vis. (mi.) Weather Sky Cond. Temperature (ºF) Relative Humidity Wind Chill (°F) Heat Index (°F) Pressure Precipitation (in)
Air Dwpt 6 hour altimeter (in) sea level (mb) 1 hr 3 hr 6 hr
Max. Min.
04 07:35 E 5 8.00 Fair CLR 77.4 76.5 97% 79 29.87 0.0
04 07:15 E 5 9.00 Fair CLR 77.4 76.5 97% 79 29.87 0.0
04 06:55 E 5 10.00 Fair CLR 77.7 76.8 97% 80 29.86 0.0
04 06:35 SE 7 10.00 Fair CLR 77.7 76.8 97% 80 29.86 0.0
04 06:15 E 6 10.00 Fair CLR 77.9 77 97% 80 29.86 0.0
04 05:55 SE 6 10.00 Fair CLR 77.9 76.6 96% 80 29.85 0.0
04 05:35 E 5 10.00 Fair CLR 77.9 76.3 95% 80 29.85 0.0
04 05:15 E 5 10.00 Fair CLR 78.1 76.6 95% 81 29.85 0.0
04 04:55 E 5 10.00 Fair CLR 78.4 76.6 94% 82 29.85 0.0
04 04:35 E 5 10.00 Fair CLR 78.8 76.6 93% 83 29.85 0.0
04 04:15 SE 6 10.00 Fair CLR 79.3 77 93% 84 29.85 0.0
04 03:55 E 3 10.00 Fair CLR 79.7 76.8 91% 85 29.85 0.0
04 03:35 SE 5 10.00 Fair CLR 80.4 77.5 91% 87 29.85 0.0
04 03:15 SE 6 10.00 Fair CLR 80.8 77.7 90% 88 29.85 0.0
04 02:55 SE 5 10.00 Fair CLR 81 77.7 90% 88 29.86 0.0
04 02:35 S 7 10.00 Fair CLR 81.3 77.9 89% 89 29.86 0.0
04 02:15 S 8 10.00 Fair CLR 81.7 78.1 89% 90 29.87 0.0
04 01:55 SE 7 10.00 Fair CLR 82 78.3 88% 91 29.87 0.0
04 01:35 S 8 10.00 Fair CLR 82.2 78.3 88% 92 29.87 0.0
04 01:15 SE 7 10.00 Fair CLR 82.6 78.3 87% 92 29.88 0.0
04 00:55 SE 7 10.00 Fair CLR 82.9 78.6 87% 93 29.88 0.0
04 00:35 SE 8 10.00 Fair CLR 83.3 78.6 86% 94 29.88 0.0
04 00:15 SE 10 10.00 Fair CLR 83.5 78.6 85% 94 29.88 0.0
03 23:55 SE 10 10.00 Fair CLR 83.8 78.6 84% 95 29.88 0.0
03 23:35 SE 13 10.00 Fair CLR 84.2 78.6 83% 96 29.87 0.0
03 23:15 SE 14 10.00 Fair CLR 84.4 78.6 83% 96 29.87 0.0
03 22:55 SE 10 10.00 Fair CLR 84.7 78.6 82% 97 29.87 0.0
03 22:35 SE 12 G 20 10.00 Fair CLR 84.9 78.4 81% 97 29.87 0.0
03 22:15 SE 10 10.00 Fair CLR 85.1 78.4 81% 97 29.86 0.0
03 21:55 SE 12 10.00 Fair CLR 85.3 78.4 80% 98 29.86 0.0
03 21:35 SE 15 10.00 Fair CLR 85.6 78.4 79% 98 29.85 0.0
03 21:15 SE 13 10.00 Fair CLR 85.8 78.4 79% 99 29.84 0.0
03 20:55 SE 14 10.00 Fair CLR 86.2 78.3 77% 99 29.83 0.0
03 20:35 SE 16 G 22 10.00 Fair CLR 86.7 78.3 76% 100 29.83 0.0
03 20:15 E 14 G 20 10.00 Fair CLR 87.4 77.9 73% 101 29.82 0.0
03 19:55 E 14 10.00 Fair CLR 88.3 77.7 71% 102 29.82 0.0
03 19:35 SE 14 G 23 10.00 Fair CLR 89.6 77.4 67% 103 29.81 0.0
03 19:15 E 14 10.00 Fair CLR 90.9 76.6 63% 104 29.81 0.0
03 18:35 E 17 G 23 10.00 Fair CLR 92.7 77.2 61% 107 29.79 0.0
03 18:15 SE 21 G 28 10.00 Fair and Breezy CLR 95 77.5 57% 111 29.78 0.0
03 17:55 SE 17 G 24 10.00 Fair CLR 96.6 77.4 54% 113 29.78 0.0
03 17:35 SE 20 G 25 10.00 Fair CLR 98.4 77.2 51% 115 29.77 0.0
03 17:15 SE 17 G 24 10.00 Fair CLR 100.2 76.3 47% 116 29.76 0.0
03 16:55 E 14 G 24 10.00 Fair CLR 101.7 75.4 43% 116 29.76 0.0
03 16:35 SE 13 G 21 10.00 Fair CLR 102.6 74.1 40% 116 29.76 0.0
03 16:15 SE 17 10.00 Fair CLR 102 72.7 39% 113 29.76 0.0
03 15:55 SE 15 G 21 10.00 Fair CLR 104.4 70.9 34% 114 29.77 0.0
03 15:35 S 8 10.00 Fair CLR 105.3 67.3 29% 112 29.77 0.0
03 15:15 S 8 10.00 Fair CLR 105.3 64.9 27% 110 29.78 0.0
03 14:55 S 8 10.00 Fair CLR 103.6 68.9 33% 111 29.79 0.0
03 14:35 S 9 G 17 10.00 Fair CLR 103.3 68.9 33% 111 29.8 0.0
03 14:15 S 10 G 17 10.00 Fair CLR 103.3 69.4 34% 111 29.81 0.0
03 13:55 SE 10 G 16 10.00 A Few Clouds FEW360 102 70.9 37% 111 29.81 0.0
03 13:35 SE 13 10.00 A Few Clouds FEW360 101.3 70.5 37% 110 29.83 0.0
03 13:15 S 12 G 16 10.00 A Few Clouds FEW330 100.8 71.4 39% 110 29.84 0.0
03 12:55 S 13 10.00 A Few Clouds FEW380 99.9 72.1 41% 110 29.84 0.0
03 12:35 S 14 G 22 10.00 Fair CLR 99.3 72 41% 109 29.85 0.0
03 12:15 S 15 G 22 10.00 Fair CLR 97.3 72.1 44% 107 29.87 0.0
03 11:55 S 15 10.00 Fair CLR 96.6 73 47% 107 29.88 0.0
03 11:35 S 13 G 21 10.00 Fair CLR 95.2 74.5 51% 107 29.89 0.0
03 11:15 SE 15 10.00 Fair CLR 94.5 73.9 52% 105 29.89 0.0
03 10:55 S 14 G 21 10.00 Fair CLR 92.8 74.7 56% 104 29.89 0.0
03 10:35 S 15 10.00 Fair CLR 91.4 75.2 59% 103 29.89 0.0
03 10:15 S 13 G 21 10.00 Fair CLR 90.1 76.3 64% 102 29.9 0.0
03 09:55 S 14 10.00 Fair CLR 88.7 77.4 69% 102 29.9 0.0
03 09:35 S 17 10.00 Fair CLR 87.3 78.4 75% 101 29.9 0.0
03 09:15 SE 17 10.00 Fair CLR 85.8 78.8 80% 99 29.9 0.0
03 08:55 SE 13 G 20 10.00 Fair CLR 84.2 79.5 86% 97 29.9 0.0
03 08:35 SE 10 10.00 Fair CLR 81.7 79.7 94% 92 29.9 0.0
03 08:15 SE 7 10.00 Fair CLR 79.7 78.4 96% 86 29.9 0.0
03 07:55 E 6 9.00 Fair CLR 78.8 77.5 96% 83 29.9 0.0
03 07:35 SE 7 9.00 Fair CLR 78.1 76.8 96% 81 29.89 0.0
03 07:15 E 5 9.00 Fair CLR 77.9 76.3 95% 80 29.89 0.0
03 06:55 SE 5 10.00 Fair CLR 78.8 77 94% 83 29.89 0.0
03 06:35 SE 5 10.00 Fair CLR 79 76.8 93% 83 29.89 0.0
03 06:15 E 3 10.00 Fair CLR 79.5 76.8 92% 85 29.89 0.0
03 05:55 E 3 10.00 Fair CLR 80.1 77.2 91% 86 29.89 0.0
03 05:35 E 3 10.00 Fair CLR 80.4 77.5 91% 87 29.9 0.0
03 05:15 E 3 10.00 Fair CLR 80.8 77.5 90% 88 29.89 0.0
03 04:55 S 5 10.00 Fair CLR 81 77.7 90% 88 29.89 0.0
03 04:35 SE 6 10.00 Fair CLR 81.1 77.9 90% 89 29.89 0.0
03 04:15 S 6 10.00 Fair CLR 81.1 77.9 90% 89 29.89 0.0
03 03:55 S 7 10.00 Fair CLR 81 77.7 90% 88 29.89 0.0
03 03:35 S 7 10.00 Fair CLR 81 77.7 90% 88 29.89 0.0
03 03:15 SE 5 10.00 Fair CLR 81.3 78.1 90% 89 29.89 0.0
03 02:55 S 7 10.00 Fair CLR 81.7 78.1 89% 90 29.89 0.0
03 02:35 S 7 10.00 Fair CLR 82 78.3 88% 91 29.89 0.0
03 02:15 SE 5 10.00 Fair CLR 82.6 78.3 87% 92 29.9 0.0
03 01:55 S 7 10.00 Fair CLR 82.9 78.3 86% 93 29.9 0.0
03 01:35 S 9 10.00 Fair CLR 83.3 78.3 85% 94 29.9 0.0
03 01:15 S 12 10.00 Fair CLR 83.3 78.3 85% 94 29.9 0.0
03 00:55 S 10 10.00 Fair CLR 83.5 78.4 85% 94 29.9 0.0
03 00:35 S 12 10.00 Fair CLR 83.5 78.4 85% 94 29.9 0.0
03 00:15 S 10 10.00 Fair CLR 83.7 78.6 85% 95 29.91 0.0
02 23:55 S 10 10.00 Fair CLR 83.8 78.8 85% 95 29.9 0.0
02 23:35 SE 13 10.00 Fair CLR 84.2 78.8 84% 96 29.9 0.0
02 23:15 SE 14 10.00 Fair CLR 84.4 78.8 83% 96 29.9 0.0
02 22:55 SE 13 10.00 Fair CLR 84.7 79 83% 97 29.9 0.0
02 22:35 SE 10 10.00 Fair CLR 84.9 79.2 83% 98 29.89 0.0
02 22:15 SE 12 G 22 10.00 Fair CLR 85.5 79.3 82% 99 29.89 0.0
02 21:55 SE 13 10.00 Fair CLR 86 79.2 80% 100 29.88 0.0
02 21:35 SE 13 10.00 Fair CLR 86.7 79.3 79% 101 29.86 0.0
02 21:15 SE 10 G 20 10.00 Fair CLR 87.4 79.3 77% 103 29.85 0.0
02 20:55 SE 10 G 21 10.00 Fair CLR 88.5 79.2 74% 104 29.84 0.0
02 20:35 SE 15 G 18 10.00 Fair CLR 89.2 79 72% 105 29.84 0.0
02 20:15 SE 16 G 23 10.00 Fair CLR 90 78.8 70% 106 29.83 0.0
02 19:55 SE 15 G 21 10.00 Fair CLR 91 79.2 68% 108 29.82 0.0
02 19:35 SE 14 G 22 10.00 Fair CLR 92.7 78.6 64% 109 29.82 0.0
02 19:15 SE 16 G 23 10.00 Fair CLR 94.5 78.3 60% 111 29.82 0.0
02 18:55 E 16 G 22 10.00 Fair CLR 96.1 77.9 56% 113 29.81 0.0
02 18:35 SE 14 G 23 10.00 Fair CLR 97.5 77 52% 113 29.81 0.0
02 18:15 E 17 G 23 10.00 Fair CLR 98.6 76.6 50% 114 29.81 0.0
02 17:55 E 17 10.00 Fair CLR 99.9 76.1 47% 115 29.8 0.0
02 17:35 E 17 G 23 10.00 Fair CLR 101.1 75 43% 115 29.8 0.0
02 17:15 SE 14 G 21 10.00 Fair CLR 102.2 73.4 40% 114 29.8 0.0
02 16:55 S 15 G 22 10.00 Fair CLR 105.1 62.4 25% 108 29.8 0.0
02 16:35 E 8 G 16 10.00 Fair CLR 103.8 62.1 26% 106 29.8 0.0
02 16:15 S 9 10.00 Fair CLR 103.6 63.3 27% 107 29.81 0.0
02 15:55 S 13 G 20 10.00 Fair CLR 106.3 60.4 22% 108 29.82 0.0
02 15:35 S 6 10.00 Fair CLR 105.6 62.6 25% 108 29.83 0.0
02 15:15 SE 10 G 20 10.00 Fair CLR 105.3 62.1 24% 108 29.84 0.0
02 14:55 E 6 10.00 Fair CLR 105.3 61 24% 107 29.85 0.0
02 14:35 Vrbl 7 10.00 Fair CLR 103.8 61.2 25% 105 29.86 0.0
02 14:15 Vrbl 6 10.00 Fair CLR 104.2 64.8 28% 108 29.87 0.0
02 13:55 SW 9 10.00 A Few Clouds FEW300 103.6 67.1 31% 109 29.88 0.0
02 13:35 S 8 10.00 A Few Clouds FEW300 101.7 67.6 33% 108 29.89 0.0
02 13:15 SE 14 10.00 A Few Clouds FEW360 100.8 70.3 37% 109 29.9 0.0
02 12:55 S 13 10.00 A Few Clouds FEW380 99.3 70 39% 107 29.91 0.0
02 12:35 S 10 10.00 A Few Clouds FEW340 98.8 72.1 42% 108 29.92 0.0
02 12:15 SE 13 G 18 10.00 Fair CLR 97.9 73 45% 108 29.93 0.0
02 11:55 S 7 10.00 Fair CLR 96.1 73.9 49% 107 29.94 0.0
02 11:35 S 16 G 21 10.00 Fair CLR 95.2 74.5 51% 107 29.95 0.0
02 11:15 S 14 10.00 Fair CLR 93.9 75 54% 106 29.96 0.0
02 10:55 S 14 10.00 Fair CLR 92.8 75.2 57% 104 29.96 0.0
02 10:35 S 14 10.00 Fair CLR 92.3 75.9 59% 105 29.96 0.0
02 10:15 S 13 10.00 Fair CLR 90.5 76.5 63% 103 29.96 0.0
02 09:55 S 18 10.00 Fair CLR 88.5 77 69% 101 29.96 0.0
02 09:35 S 17 G 22 10.00 Fair CLR 86.7 77.9 75% 99 29.96 0.0
02 09:15 S 15 10.00 Fair CLR 84.4 78.4 82% 96 29.95 0.0
02 08:55 S 13 10.00 Fair CLR 82.2 79.2 91% 92 29.95 0.0
02 08:35 S 7 10.00 Fair CLR 79.9 78.8 97% 86 29.95 0.0
02 08:15 SE 3 10.00 Fair CLR 78.4 77.7 98% 82 29.95 0.0
02 07:55 SE 3 9.00 Fair CLR 76.8 75.9 97% 77 29.94 0.0
02 07:35 SE 5 8.00 Fair CLR 76.1 75 96% 76 29.94 0.0
02 07:15 SE 3 8.00 Fair CLR 75.6 74.3 96% 74 29.94 0.0
02 06:55 SE 3 10.00 Fair CLR 75.6 74.1 95% 74 29.94 0.0
02 06:35 E 3 10.00 Fair CLR 75.6 74.1 95% 74 29.93 0.0
02 06:15 E 3 9.00 Fair CLR 76.1 74.5 95% 76 29.93 0.0
02 05:55 SE 5 10.00 Fair CLR 76.6 75 95% 77 29.93 0.0
02 05:35 E 3 10.00 Fair CLR 76.8 74.8 94% 78 29.93 0.0
02 05:15 E 3 10.00 Fair CLR 77 74.8 93% 78 29.93 0.0
02 04:55 E 3 10.00 Fair CLR 77.5 75.4 93% 79 29.93 0.0
02 04:35 E 5 10.00 Fair CLR 77.9 75.4 92% 80 29.93 0.0
02 04:15 E 3 10.00 Fair CLR 78.3 75.4 91% 81 29.93 0.0
02 03:55 Calm 10.00 Fair CLR 79.2 76.5 91% 84 29.93 0.0
02 03:35 SE 5 10.00 Fair CLR 79.5 76.6 91% 84 29.93 0.0
02 03:15 S 5 10.00 Fair CLR 79.9 77 91% 85 29.93 0.0
02 02:55 SE 5 10.00 Fair CLR 80.1 77.2 91% 86 29.94 0.0
02 02:35 S 7 10.00 Fair CLR 80.4 77.2 90% 87 29.94 0.0
02 02:15 SE 6 10.00 Fair CLR 80.6 77.2 89% 87 29.95 0.0
02 01:55 SE 6 10.00 Fair CLR 81 77.4 89% 88 29.95 0.0
02 01:35 SE 7 10.00 Fair CLR 81.3 77.4 88% 89 29.95 0.0
02 01:15 S 7 10.00 Fair CLR 81.5 77.4 87% 89 29.95 0.0
02 00:55 S 7 10.00 Fair CLR 81.9 77.5 87% 90 29.95 0.0
02 00:35 S 8 10.00 Fair CLR 82.4 77.7 86% 91 29.95 0.0
02 00:15 S 9 10.00 Fair CLR 82.8 77.7 85% 92 29.95 0.0
01 23:55 S 9 10.00 Fair CLR 83.1 77.7 84% 93 29.95 0.0
01 23:35 S 10 10.00 Fair CLR 83.5 77.7 83% 94 29.94 0.0
01 23:15 SE 12 10.00 Fair CLR 83.8 77.7 82% 94 29.95 0.0
01 22:55 SE 12 10.00 Fair CLR 84.2 77.7 81% 95 29.94 0.0
01 22:35 SE 13 10.00 Fair CLR 84.4 77.5 80% 95 29.93 0.0
01 22:15 SE 9 10.00 Fair CLR 84.6 77.4 79% 95 29.92 0.0
01 21:55 SE 12 10.00 Fair CLR 84.9 77.4 78% 96 29.91 0.0
01 21:35 SE 12 10.00 Fair CLR 85.5 77 76% 96 29.9 0.0
01 21:15 SE 9 10.00 Fair CLR 85.8 76.1 73% 96 29.9 0.0
01 20:55 SE 12 10.00 Fair CLR 86.4 75.7 71% 96 29.89 0.0
01 20:35 SE 13 G 21 10.00 Fair CLR 86.9 75.2 68% 96 29.89 0.0
01 20:15 E 12 10.00 Fair CLR 87.8 75 66% 98 29.88 0.0
01 19:55 SE 16 10.00 Fair CLR 88.9 75 64% 99 29.87 0.0
01 19:35 SE 14 10.00 Fair CLR 90.3 74.7 60% 101 29.87 0.0
01 19:15 E 15 G 21 10.00 Fair CLR 91.8 73.9 56% 102 29.86 0.0
01 18:55 SE 13 10.00 Fair CLR 93.2 74.1 54% 104 29.86 0.0
01 18:35 E 14 G 22 10.00 Fair CLR 94.5 75.2 54% 107 29.85 0.0
01 18:15 SE 13 G 25 10.00 Fair CLR 95.2 75.2 53% 108 29.85 0.0
01 17:55 SE 14 10.00 Fair CLR 96.6 75 50% 109 29.84 0.0
01 17:35 E 14 G 24 10.00 Fair CLR 97.7 74.7 48% 110 29.84 0.0
01 17:15 E 15 G 21 10.00 Fair CLR 99.3 74.1 45% 111 29.84 0.0
01 16:55 E 14 G 20 10.00 Fair CLR 100 72.5 41% 110 29.84 0.0
01 16:35 SE 15 10.00 Fair CLR 102.2 71.2 37% 112 29.84 0.0
01 16:15 E 10 G 24 10.00 Fair CLR 102.7 68 33% 109 29.84 0.0
01 15:55 SE 10 10.00 A Few Clouds FEW080 106.2 64.8 26% 111 29.85 0.0
01 15:35 SE 13 G 25 10.00 Fair CLR 105.1 62.4 25% 108 29.86 0.0
01 15:15 S 10 G 18 10.00 A Few Clouds FEW370 104 60.3 24% 105 29.87 0.0
01 14:55 Calm 10.00 A Few Clouds FEW370 104.9 60.8 24% 106 29.88 0.0
01 14:35 SE 7 G 18 10.00 Fair CLR 103.5 60.4 24% 105 29.89 0.0
01 14:15 S 8 G 17 10.00 Fair CLR 102.4 61.7 26% 104 29.9 0.0
01 13:55 Calm 10.00 A Few Clouds FEW350 102 62.6 28% 104 29.9 0.0
01 13:35 SE 7 10.00 Fair CLR 101.7 63.5 29% 104 29.91 0.0
01 13:15 E 6 10.00 A Few Clouds FEW350 100.9 64.4 30% 104 29.92 0.0
01 12:55 SW 9 10.00 A Few Clouds FEW350 99.7 64.4 32% 103 29.93 0.0
01 12:35 S 6 G 17 10.00 Fair CLR 98.1 64.6 33% 101 29.95 0.0
01 12:15 SE 10 10.00 Fair CLR 97.5 67.1 37% 102 29.95 0.0
01 11:55 SE 9 10.00 Fair CLR 96.4 65.7 36% 100 29.96 0.0
01 11:35 SE 9 10.00 Fair CLR 94.8 67.5 41% 99 29.97 0.0
01 11:15 SE 10 10.00 Fair CLR 93.7 70.9 47% 101 29.96 0.0
01 10:55 S 12 10.00 Fair CLR 92.1 71.8 52% 100 29.96 0.0
01 10:35 S 12 10.00 Fair CLR 90.7 73.4 57% 100 29.96 0.0
01 10:15 S 13 10.00 Fair CLR 89.1 74.8 63% 99 29.97 0.0
01 09:55 SE 10 10.00 Fair CLR 86.9 76.3 71% 98 29.97 0.0
01 09:35 S 9 10.00 Fair CLR 85.3 77.7 78% 97 29.97 0.0
01 09:15 SE 10 10.00 Fair CLR 82.8 78.4 87% 93 29.96 0.0
01 08:55 Calm 10.00 Fair CLR 80.1 78.8 96% 87 29.96 0.0
01 08:35 Calm 10.00 Fair CLR 78.8 78.3 98% 83 29.96 0.0
01 08:15 SE 3 9.00 Fair CLR 77.4 76.6 98% 79 29.96 0.0
01 07:55 E 3 7.00 Fair CLR 76.1 75.4 98% 75 29.95 0.0
Date Time (cdt) Wind (mph) Vis. (mi.) Weather Sky Cond. Air Dwpt Max. Min. Relative Humidity Wind Chill (°F) Heat Index (°F) altimeter (in) sea level (mb) 1 hr 3 hr 6 hr
6 hour
Temperature (ºF) Pressure Precipitation (in)